sensor_id;sensor_type;location;lat;lon;timestamp;temperature;humidity
13052;DHT22;6592;47.484;9.726;2023-04-19T00:00:51;8.50;99.90
13052;DHT22;6592;47.484;9.726;2023-04-19T00:03:19;8.50;99.90
13052;DHT22;6592;47.484;9.726;2023-04-19T00:05:50;8.40;99.90
13052;DHT22;6592;47.484;9.726;2023-04-19T00:08:20;8.30;99.90
13052;DHT22;6592;47.484;9.726;2023-04-19T00:10:48;8.30;99.90
13052;DHT22;6592;47.484;9.726;2023-04-19T00:13:16;8.30;99.90
13052;DHT22;6592;47.484;9.726;2023-04-19T00:15:46;8.20;99.90
13052;DHT22;6592;47.484;9.726;2023-04-19T00:18:14;8.10;99.90
13052;DHT22;6592;47.484;9.726;2023-04-19T00:20:43;8.10;99.90
13052;DHT22;6592;47.484;9.726;2023-04-19T00:23:12;8.10;99.90
13052;DHT22;6592;47.484;9.726;2023-04-19T00:25:40;8.10;99.90
13052;DHT22;6592;47.484;9.726;2023-04-19T00:28:08;8.00;99.90
13052;DHT22;6592;47.484;9.726;2023-04-19T00:30:37;8.00;99.90
13052;DHT22;6592;47.484;9.726;2023-04-19T00:33:06;7.90;99.90
13052;DHT22;6592;47.484;9.726;2023-04-19T00:35:39;7.80;99.90
13052;DHT22;6592;47.484;9.726;2023-04-19T00:38:08;7.80;99.90
13052;DHT22;6592;47.484;9.726;2023-04-19T00:40:36;7.80;99.90
13052;DHT22;6592;47.484;9.726;2023-04-19T00:43:05;7.80;99.90
13052;DHT22;6592;47.484;9.726;2023-04-19T00:45:34;7.80;99.90
13052;DHT22;6592;47.484;9.726;2023-04-19T00:48:03;7.80;99.90
13052;DHT22;6592;47.484;9.726;2023-04-19T00:50:33;7.80;99.90
13052;DHT22;6592;47.484;9.726;2023-04-19T00:53:02;7.70;99.90
13052;DHT22;6592;47.484;9.726;2023-04-19T00:55:30;7.70;99.90
13052;DHT22;6592;47.484;9.726;2023-04-19T00:57:59;7.70;99.90
13052;DHT22;6592;47.484;9.726;2023-04-19T01:00:27;7.70;99.90
13052;DHT22;6592;47.484;9.726;2023-04-19T01:02:55;7.60;99.90
13052;DHT22;6592;47.484;9.726;2023-04-19T01:05:24;7.60;99.90
13052;DHT22;6592;47.484;9.726;2023-04-19T01:07:53;7.60;99.90
13052;DHT22;6592;47.484;9.726;2023-04-19T01:10:22;7.60;99.90
13052;DHT22;6592;47.484;9.726;2023-04-19T01:12:50;7.60;99.90
13052;DHT22;6592;47.484;9.726;2023-04-19T01:15:18;7.70;99.90
13052;DHT22;6592;47.484;9.726;2023-04-19T01:17:47;7.70;99.90
13052;DHT22;6592;47.484;9.726;2023-04-19T01:20:15;7.80;99.90
13052;DHT22;6592;47.484;9.726;2023-04-19T01:22:45;7.70;99.90
13052;DHT22;6592;47.484;9.726;2023-04-19T01:25:13;7.70;99.90
13052;DHT22;6592;47.484;9.726;2023-04-19T01:27:41;7.70;99.90
13052;DHT22;6592;47.484;9.726;2023-04-19T01:30:10;7.70;99.90
13052;DHT22;6592;47.484;9.726;2023-04-19T01:32:39;7.70;99.90
13052;DHT22;6592;47.484;9.726;2023-04-19T01:35:07;7.60;99.90
13052;DHT22;6592;47.484;9.726;2023-04-19T01:37:37;7.60;99.90
13052;DHT22;6592;47.484;9.726;2023-04-19T01:40:07;7.70;99.90
13052;DHT22;6592;47.484;9.726;2023-04-19T01:42:36;7.60;99.90
13052;DHT22;6592;47.484;9.726;2023-04-19T01:45:05;7.70;99.90
13052;DHT22;6592;47.484;9.726;2023-04-19T01:47:33;7.60;99.90
13052;DHT22;6592;47.484;9.726;2023-04-19T01:50:01;7.60;99.90
13052;DHT22;6592;47.484;9.726;2023-04-19T01:52:30;7.60;99.90
13052;DHT22;6592;47.484;9.726;2023-04-19T01:54:58;7.60;99.90
13052;DHT22;6592;47.484;9.726;2023-04-19T01:57:28;7.70;99.90
13052;DHT22;6592;47.484;9.726;2023-04-19T01:59:56;7.70;99.90
13052;DHT22;6592;47.484;9.726;2023-04-19T02:02:24;7.70;99.90
13052;DHT22;6592;47.484;9.726;2023-04-19T02:04:53;7.70;99.90
13052;DHT22;6592;47.484;9.726;2023-04-19T02:07:21;7.80;99.90
13052;DHT22;6592;47.484;9.726;2023-04-19T02:09:49;7.70;99.90
13052;DHT22;6592;47.484;9.726;2023-04-19T02:12:17;7.70;99.90
13052;DHT22;6592;47.484;9.726;2023-04-19T02:14:47;7.80;99.90
13052;DHT22;6592;47.484;9.726;2023-04-19T02:17:15;7.80;99.90
13052;DHT22;6592;47.484;9.726;2023-04-19T02:19:43;7.80;99.90
13052;DHT22;6592;47.484;9.726;2023-04-19T02:22:11;7.80;99.90
13052;DHT22;6592;47.484;9.726;2023-04-19T02:24:40;7.80;99.90
13052;DHT22;6592;47.484;9.726;2023-04-19T02:27:08;7.90;99.90
13052;DHT22;6592;47.484;9.726;2023-04-19T02:29:36;7.90;99.90
13052;DHT22;6592;47.484;9.726;2023-04-19T02:32:06;7.90;99.90
13052;DHT22;6592;47.484;9.726;2023-04-19T02:34:35;8.00;99.90
13052;DHT22;6592;47.484;9.726;2023-04-19T02:37:03;8.00;99.90
13052;DHT22;6592;47.484;9.726;2023-04-19T02:39:31;8.10;99.90
13052;DHT22;6592;47.484;9.726;2023-04-19T02:42:00;8.10;99.90
13052;DHT22;6592;47.484;9.726;2023-04-19T02:44:28;8.10;99.90
13052;DHT22;6592;47.484;9.726;2023-04-19T02:46:57;8.20;99.90
13052;DHT22;6592;47.484;9.726;2023-04-19T02:49:26;8.20;99.90
13052;DHT22;6592;47.484;9.726;2023-04-19T02:51:54;8.20;99.90
13052;DHT22;6592;47.484;9.726;2023-04-19T02:54:23;8.30;99.90
13052;DHT22;6592;47.484;9.726;2023-04-19T02:56:51;8.30;99.90
13052;DHT22;6592;47.484;9.726;2023-04-19T02:59:19;8.30;99.90
13052;DHT22;6592;47.484;9.726;2023-04-19T03:01:47;8.40;99.90
13052;DHT22;6592;47.484;9.726;2023-04-19T03:04:16;8.40;99.90
13052;DHT22;6592;47.484;9.726;2023-04-19T03:06:46;8.40;99.90
13052;DHT22;6592;47.484;9.726;2023-04-19T03:09:14;8.20;99.90
13052;DHT22;6592;47.484;9.726;2023-04-19T03:11:42;8.40;99.90
13052;DHT22;6592;47.484;9.726;2023-04-19T03:14:10;8.40;99.90
13052;DHT22;6592;47.484;9.726;2023-04-19T03:16:39;8.50;99.90
13052;DHT22;6592;47.484;9.726;2023-04-19T03:19:07;8.50;99.90
13052;DHT22;6592;47.484;9.726;2023-04-19T03:21:36;8.50;99.90
13052;DHT22;6592;47.484;9.726;2023-04-19T03:24:06;8.50;99.90
13052;DHT22;6592;47.484;9.726;2023-04-19T03:26:34;8.60;99.90
13052;DHT22;6592;47.484;9.726;2023-04-19T03:29:03;8.50;99.90
13052;DHT22;6592;47.484;9.726;2023-04-19T03:31:31;8.60;99.90
13052;DHT22;6592;47.484;9.726;2023-04-19T03:33:59;8.60;99.90
13052;DHT22;6592;47.484;9.726;2023-04-19T03:36:28;8.60;99.90
13052;DHT22;6592;47.484;9.726;2023-04-19T03:38:56;8.70;99.90
13052;DHT22;6592;47.484;9.726;2023-04-19T03:41:26;8.70;99.90
13052;DHT22;6592;47.484;9.726;2023-04-19T03:43:54;8.70;99.90
13052;DHT22;6592;47.484;9.726;2023-04-19T03:46:24;8.70;99.90
13052;DHT22;6592;47.484;9.726;2023-04-19T03:48:52;8.80;99.90
13052;DHT22;6592;47.484;9.726;2023-04-19T03:51:20;8.80;99.90
13052;DHT22;6592;47.484;9.726;2023-04-19T03:53:48;8.80;99.90
13052;DHT22;6592;47.484;9.726;2023-04-19T03:56:17;8.80;99.90
13052;DHT22;6592;47.484;9.726;2023-04-19T03:58:46;8.90;99.90
13052;DHT22;6592;47.484;9.726;2023-04-19T04:01:17;8.90;99.90
13052;DHT22;6592;47.484;9.726;2023-04-19T04:03:46;8.90;99.90
13052;DHT22;6592;47.484;9.726;2023-04-19T04:06:16;9.00;99.90
13052;DHT22;6592;47.484;9.726;2023-04-19T04:08:44;9.00;99.90
13052;DHT22;6592;47.484;9.726;2023-04-19T04:11:13;9.00;99.90
13052;DHT22;6592;47.484;9.726;2023-04-19T04:13:41;8.90;99.90
13052;DHT22;6592;47.484;9.726;2023-04-19T04:16:11;8.90;99.90
13052;DHT22;6592;47.484;9.726;2023-04-19T04:18:39;8.90;99.90
13052;DHT22;6592;47.484;9.726;2023-04-19T04:21:07;8.90;99.90
13052;DHT22;6592;47.484;9.726;2023-04-19T04:23:36;8.90;99.90
13052;DHT22;6592;47.484;9.726;2023-04-19T04:26:04;8.90;99.90
13052;DHT22;6592;47.484;9.726;2023-04-19T04:28:35;8.80;99.90
13052;DHT22;6592;47.484;9.726;2023-04-19T04:31:04;8.80;99.90
13052;DHT22;6592;47.484;9.726;2023-04-19T04:33:33;8.80;99.90
13052;DHT22;6592;47.484;9.726;2023-04-19T04:36:02;8.80;99.90
13052;DHT22;6592;47.484;9.726;2023-04-19T04:38:32;8.80;99.90
13052;DHT22;6592;47.484;9.726;2023-04-19T04:41:00;8.80;99.90
13052;DHT22;6592;47.484;9.726;2023-04-19T04:43:29;8.90;99.90
13052;DHT22;6592;47.484;9.726;2023-04-19T04:45:58;8.80;99.90
13052;DHT22;6592;47.484;9.726;2023-04-19T04:48:26;8.80;99.90
13052;DHT22;6592;47.484;9.726;2023-04-19T04:50:56;8.90;99.90
13052;DHT22;6592;47.484;9.726;2023-04-19T04:53:25;8.90;99.90
13052;DHT22;6592;47.484;9.726;2023-04-19T04:55:53;8.90;99.90
13052;DHT22;6592;47.484;9.726;2023-04-19T04:58:21;8.90;99.90
13052;DHT22;6592;47.484;9.726;2023-04-19T05:00:50;9.00;99.90
13052;DHT22;6592;47.484;9.726;2023-04-19T05:03:18;8.90;99.90
13052;DHT22;6592;47.484;9.726;2023-04-19T05:05:46;9.00;99.90
13052;DHT22;6592;47.484;9.726;2023-04-19T05:08:16;8.90;99.90
13052;DHT22;6592;47.484;9.726;2023-04-19T05:10:44;9.00;99.90
13052;DHT22;6592;47.484;9.726;2023-04-19T05:13:12;9.00;99.90
13052;DHT22;6592;47.484;9.726;2023-04-19T05:15:41;9.00;99.90
13052;DHT22;6592;47.484;9.726;2023-04-19T05:18:09;9.00;99.90
13052;DHT22;6592;47.484;9.726;2023-04-19T05:20:37;9.00;99.90
13052;DHT22;6592;47.484;9.726;2023-04-19T05:23:06;9.00;99.90
13052;DHT22;6592;47.484;9.726;2023-04-19T05:25:38;9.10;99.90
13052;DHT22;6592;47.484;9.726;2023-04-19T05:28:06;9.00;99.90
13052;DHT22;6592;47.484;9.726;2023-04-19T05:30:35;9.10;99.90
13052;DHT22;6592;47.484;9.726;2023-04-19T05:33:03;9.10;99.90
13052;DHT22;6592;47.484;9.726;2023-04-19T05:35:31;9.10;99.90
13052;DHT22;6592;47.484;9.726;2023-04-19T05:38:00;9.10;99.90
13052;DHT22;6592;47.484;9.726;2023-04-19T05:40:28;9.20;99.90
13052;DHT22;6592;47.484;9.726;2023-04-19T05:42:58;9.30;99.90
13052;DHT22;6592;47.484;9.726;2023-04-19T05:45:26;9.30;99.90
13052;DHT22;6592;47.484;9.726;2023-04-19T05:47:54;9.30;99.90
13052;DHT22;6592;47.484;9.726;2023-04-19T05:50:23;9.40;99.90
13052;DHT22;6592;47.484;9.726;2023-04-19T05:52:51;9.40;99.90
13052;DHT22;6592;47.484;9.726;2023-04-19T05:55:19;9.40;99.90
13052;DHT22;6592;47.484;9.726;2023-04-19T05:57:48;9.50;99.90
13052;DHT22;6592;47.484;9.726;2023-04-19T06:00:18;9.50;99.90
13052;DHT22;6592;47.484;9.726;2023-04-19T06:02:46;9.50;99.90
13052;DHT22;6592;47.484;9.726;2023-04-19T06:05:15;9.60;99.90
13052;DHT22;6592;47.484;9.726;2023-04-19T06:07:43;9.60;99.90
13052;DHT22;6592;47.484;9.726;2023-04-19T06:10:25;9.70;99.90
13052;DHT22;6592;47.484;9.726;2023-04-19T06:13:13;9.70;99.90
13052;DHT22;6592;47.484;9.726;2023-04-19T06:15:43;9.70;99.90
13052;DHT22;6592;47.484;9.726;2023-04-19T06:18:11;9.70;99.90
13052;DHT22;6592;47.484;9.726;2023-04-19T06:20:46;9.70;99.90
13052;DHT22;6592;47.484;9.726;2023-04-19T06:23:14;9.80;99.90
13052;DHT22;6592;47.484;9.726;2023-04-19T06:25:44;9.90;99.90
13052;DHT22;6592;47.484;9.726;2023-04-19T06:28:14;9.90;99.90
13052;DHT22;6592;47.484;9.726;2023-04-19T06:30:44;10.00;99.90
13052;DHT22;6592;47.484;9.726;2023-04-19T06:33:12;10.00;99.90
13052;DHT22;6592;47.484;9.726;2023-04-19T06:35:40;10.00;99.90
13052;DHT22;6592;47.484;9.726;2023-04-19T06:38:09;10.10;99.90
13052;DHT22;6592;47.484;9.726;2023-04-19T06:40:37;10.20;99.90
13052;DHT22;6592;47.484;9.726;2023-04-19T06:43:05;10.20;99.90
13052;DHT22;6592;47.484;9.726;2023-04-19T06:45:33;10.30;99.90
13052;DHT22;6592;47.484;9.726;2023-04-19T06:48:04;10.30;99.90
13052;DHT22;6592;47.484;9.726;2023-04-19T06:50:32;10.40;99.90
13052;DHT22;6592;47.484;9.726;2023-04-19T06:53:00;10.40;99.90
13052;DHT22;6592;47.484;9.726;2023-04-19T06:55:30;10.50;99.90
13052;DHT22;6592;47.484;9.726;2023-04-19T06:57:59;10.50;99.90
13052;DHT22;6592;47.484;9.726;2023-04-19T07:00:27;10.50;99.90
13052;DHT22;6592;47.484;9.726;2023-04-19T07:02:55;10.60;99.90
13052;DHT22;6592;47.484;9.726;2023-04-19T07:05:27;10.60;99.90
13052;DHT22;6592;47.484;9.726;2023-04-19T07:07:55;10.70;99.90
13052;DHT22;6592;47.484;9.726;2023-04-19T07:10:24;10.60;99.90
13052;DHT22;6592;47.484;9.726;2023-04-19T07:12:52;10.70;99.90
13052;DHT22;6592;47.484;9.726;2023-04-19T07:15:20;10.80;99.90
13052;DHT22;6592;47.484;9.726;2023-04-19T07:17:48;10.90;99.90
13052;DHT22;6592;47.484;9.726;2023-04-19T07:20:17;10.90;99.90
13052;DHT22;6592;47.484;9.726;2023-04-19T07:22:46;11.00;99.90
13052;DHT22;6592;47.484;9.726;2023-04-19T07:25:15;11.10;99.90
13052;DHT22;6592;47.484;9.726;2023-04-19T07:27:43;11.30;99.90
13052;DHT22;6592;47.484;9.726;2023-04-19T07:30:11;11.50;99.90
13052;DHT22;6592;47.484;9.726;2023-04-19T07:32:39;11.60;99.90
13052;DHT22;6592;47.484;9.726;2023-04-19T07:35:08;11.80;99.90
13052;DHT22;6592;47.484;9.726;2023-04-19T07:37:37;11.80;99.90
13052;DHT22;6592;47.484;9.726;2023-04-19T07:40:08;12.00;99.90
13052;DHT22;6592;47.484;9.726;2023-04-19T07:42:36;12.20;99.90
13052;DHT22;6592;47.484;9.726;2023-04-19T07:45:05;12.30;99.90
13052;DHT22;6592;47.484;9.726;2023-04-19T07:47:34;12.40;99.90
13052;DHT22;6592;47.484;9.726;2023-04-19T07:50:03;12.60;99.90
13052;DHT22;6592;47.484;9.726;2023-04-19T07:52:33;12.70;99.90
13052;DHT22;6592;47.484;9.726;2023-04-19T07:55:01;13.00;99.90
13052;DHT22;6592;47.484;9.726;2023-04-19T07:57:31;13.10;99.90
13052;DHT22;6592;47.484;9.726;2023-04-19T07:59:59;13.30;99.90
13052;DHT22;6592;47.484;9.726;2023-04-19T08:02:28;13.50;99.90
13052;DHT22;6592;47.484;9.726;2023-04-19T08:04:56;13.50;99.90
13052;DHT22;6592;47.484;9.726;2023-04-19T08:07:25;13.90;99.90
13052;DHT22;6592;47.484;9.726;2023-04-19T08:09:53;13.70;99.90
13052;DHT22;6592;47.484;9.726;2023-04-19T08:12:21;13.90;99.90
13052;DHT22;6592;47.484;9.726;2023-04-19T08:15:06;14.00;99.90
13052;DHT22;6592;47.484;9.726;2023-04-19T08:17:55;14.10;99.90
13052;DHT22;6592;47.484;9.726;2023-04-19T08:20:23;14.30;99.90
13052;DHT22;6592;47.484;9.726;2023-04-19T08:22:52;14.50;99.90
13052;DHT22;6592;47.484;9.726;2023-04-19T08:25:21;14.60;99.90
13052;DHT22;6592;47.484;9.726;2023-04-19T08:27:52;14.70;99.90
13052;DHT22;6592;47.484;9.726;2023-04-19T08:30:22;14.90;99.90
13052;DHT22;6592;47.484;9.726;2023-04-19T08:32:50;15.00;99.90
13052;DHT22;6592;47.484;9.726;2023-04-19T08:35:23;14.90;99.90
13052;DHT22;6592;47.484;9.726;2023-04-19T08:37:52;15.00;99.90
13052;DHT22;6592;47.484;9.726;2023-04-19T08:40:20;15.20;99.90
13052;DHT22;6592;47.484;9.726;2023-04-19T08:42:48;15.10;99.90
13052;DHT22;6592;47.484;9.726;2023-04-19T08:45:18;14.90;99.90
13052;DHT22;6592;47.484;9.726;2023-04-19T08:47:53;14.90;99.90
13052;DHT22;6592;47.484;9.726;2023-04-19T08:50:27;14.90;99.90
13052;DHT22;6592;47.484;9.726;2023-04-19T08:53:11;15.10;99.90
13052;DHT22;6592;47.484;9.726;2023-04-19T08:55:51;14.90;99.90
13052;DHT22;6592;47.484;9.726;2023-04-19T08:58:27;15.00;99.90
13052;DHT22;6592;47.484;9.726;2023-04-19T09:01:18;15.10;99.90
13052;DHT22;6592;47.484;9.726;2023-04-19T09:03:51;15.30;99.90
13052;DHT22;6592;47.484;9.726;2023-04-19T09:06:40;15.40;99.90
13052;DHT22;6592;47.484;9.726;2023-04-19T09:09:16;15.40;99.90
13052;DHT22;6592;47.484;9.726;2023-04-19T09:11:47;15.50;99.90
13052;DHT22;6592;47.484;9.726;2023-04-19T09:14:19;15.70;99.90
13052;DHT22;6592;47.484;9.726;2023-04-19T09:16:47;15.80;99.90
13052;DHT22;6592;47.484;9.726;2023-04-19T09:19:19;15.70;99.90
13052;DHT22;6592;47.484;9.726;2023-04-19T09:21:51;15.80;99.90
13052;DHT22;6592;47.484;9.726;2023-04-19T09:24:36;15.80;99.90
13052;DHT22;6592;47.484;9.726;2023-04-19T09:27:07;16.00;99.90
13052;DHT22;6592;47.484;9.726;2023-04-19T09:29:38;16.10;99.90
13052;DHT22;6592;47.484;9.726;2023-04-19T09:32:06;16.00;99.90
13052;DHT22;6592;47.484;9.726;2023-04-19T09:34:50;15.90;99.90
13052;DHT22;6592;47.484;9.726;2023-04-19T09:37:19;15.90;99.90
13052;DHT22;6592;47.484;9.726;2023-04-19T09:40:24;16.00;99.90
13052;DHT22;6592;47.484;9.726;2023-04-19T09:42:54;16.20;99.90
13052;DHT22;6592;47.484;9.726;2023-04-19T09:45:26;16.30;99.90
13052;DHT22;6592;47.484;9.726;2023-04-19T09:48:00;16.50;99.90
13052;DHT22;6592;47.484;9.726;2023-04-19T09:50:31;16.60;99.90
13052;DHT22;6592;47.484;9.726;2023-04-19T09:53:16;16.70;99.90
13052;DHT22;6592;47.484;9.726;2023-04-19T09:55:45;16.70;99.90
13052;DHT22;6592;47.484;9.726;2023-04-19T09:58:27;16.90;99.90
13052;DHT22;6592;47.484;9.726;2023-04-19T10:01:13;16.80;99.90
13052;DHT22;6592;47.484;9.726;2023-04-19T10:03:44;17.00;99.90
13052;DHT22;6592;47.484;9.726;2023-04-19T10:06:18;17.00;99.90
13052;DHT22;6592;47.484;9.726;2023-04-19T10:08:52;17.20;99.90
13052;DHT22;6592;47.484;9.726;2023-04-19T10:11:20;17.20;99.90
13052;DHT22;6592;47.484;9.726;2023-04-19T10:13:55;17.30;99.90
13052;DHT22;6592;47.484;9.726;2023-04-19T10:16:24;17.40;99.90
13052;DHT22;6592;47.484;9.726;2023-04-19T10:18:53;17.40;99.90
13052;DHT22;6592;47.484;9.726;2023-04-19T10:21:26;17.30;99.90
13052;DHT22;6592;47.484;9.726;2023-04-19T10:23:55;17.40;99.90
13052;DHT22;6592;47.484;9.726;2023-04-19T10:26:23;17.60;99.90
13052;DHT22;6592;47.484;9.726;2023-04-19T10:28:54;17.70;99.90
13052;DHT22;6592;47.484;9.726;2023-04-19T10:31:25;18.00;99.90
13052;DHT22;6592;47.484;9.726;2023-04-19T10:33:53;18.20;99.90
13052;DHT22;6592;47.484;9.726;2023-04-19T10:36:26;18.20;99.90
13052;DHT22;6592;47.484;9.726;2023-04-19T10:38:55;18.60;99.90
13052;DHT22;6592;47.484;9.726;2023-04-19T10:41:55;19.00;99.90
13052;DHT22;6592;47.484;9.726;2023-04-19T10:44:24;19.00;99.90
13052;DHT22;6592;47.484;9.726;2023-04-19T10:46:52;19.40;99.90
13052;DHT22;6592;47.484;9.726;2023-04-19T10:49:22;19.90;99.90
13052;DHT22;6592;47.484;9.726;2023-04-19T10:51:52;20.40;99.90
13052;DHT22;6592;47.484;9.726;2023-04-19T10:54:28;20.70;99.90
13052;DHT22;6592;47.484;9.726;2023-04-19T10:56:59;20.90;99.90
13052;DHT22;6592;47.484;9.726;2023-04-19T10:59:29;21.10;99.90
13052;DHT22;6592;47.484;9.726;2023-04-19T11:01:58;21.00;99.90
13052;DHT22;6592;47.484;9.726;2023-04-19T11:05:01;21.00;99.90
13052;DHT22;6592;47.484;9.726;2023-04-19T11:07:41;20.90;99.90
13052;DHT22;6592;47.484;9.726;2023-04-19T11:10:09;20.70;99.90
13052;DHT22;6592;47.484;9.726;2023-04-19T11:12:42;20.60;99.90
13052;DHT22;6592;47.484;9.726;2023-04-19T11:15:10;20.30;99.90
13052;DHT22;6592;47.484;9.726;2023-04-19T11:17:39;20.20;99.90
13052;DHT22;6592;47.484;9.726;2023-04-19T11:20:09;20.40;99.90
13052;DHT22;6592;47.484;9.726;2023-04-19T11:22:41;20.60;99.90
13052;DHT22;6592;47.484;9.726;2023-04-19T11:25:11;20.90;99.90
13052;DHT22;6592;47.484;9.726;2023-04-19T11:27:40;21.40;99.90
13052;DHT22;6592;47.484;9.726;2023-04-19T11:30:11;21.70;99.90
13052;DHT22;6592;47.484;9.726;2023-04-19T11:32:44;22.10;99.90
13052;DHT22;6592;47.484;9.726;2023-04-19T11:35:17;22.30;99.90
13052;DHT22;6592;47.484;9.726;2023-04-19T11:37:47;22.30;99.90
13052;DHT22;6592;47.484;9.726;2023-04-19T11:40:17;22.20;99.90
13052;DHT22;6592;47.484;9.726;2023-04-19T11:42:45;21.80;99.90
13052;DHT22;6592;47.484;9.726;2023-04-19T11:45:23;21.70;99.90
13052;DHT22;6592;47.484;9.726;2023-04-19T11:47:57;21.70;99.90
13052;DHT22;6592;47.484;9.726;2023-04-19T11:50:36;21.50;99.90
13052;DHT22;6592;47.484;9.726;2023-04-19T11:53:13;21.80;99.90
13052;DHT22;6592;47.484;9.726;2023-04-19T11:55:46;22.00;99.90
13052;DHT22;6592;47.484;9.726;2023-04-19T11:58:25;21.90;99.90
13052;DHT22;6592;47.484;9.726;2023-04-19T12:00:55;21.60;99.90
13052;DHT22;6592;47.484;9.726;2023-04-19T12:03:26;21.20;99.90
13052;DHT22;6592;47.484;9.726;2023-04-19T12:05:56;21.00;99.90
13052;DHT22;6592;47.484;9.726;2023-04-19T12:08:34;21.20;99.90
13052;DHT22;6592;47.484;9.726;2023-04-19T12:11:03;21.40;99.90
13052;DHT22;6592;47.484;9.726;2023-04-19T12:13:32;21.10;99.90
13052;DHT22;6592;47.484;9.726;2023-04-19T12:16:02;21.00;99.90
13052;DHT22;6592;47.484;9.726;2023-04-19T12:18:44;20.80;99.90
13052;DHT22;6592;47.484;9.726;2023-04-19T12:21:25;20.40;99.90
13052;DHT22;6592;47.484;9.726;2023-04-19T12:23:56;20.10;99.90
13052;DHT22;6592;47.484;9.726;2023-04-19T12:26:26;20.00;99.90
13052;DHT22;6592;47.484;9.726;2023-04-19T12:28:55;20.20;99.90
13052;DHT22;6592;47.484;9.726;2023-04-19T12:31:24;20.20;99.90
13052;DHT22;6592;47.484;9.726;2023-04-19T12:33:53;20.40;99.90
13052;DHT22;6592;47.484;9.726;2023-04-19T12:36:21;20.30;99.90
13052;DHT22;6592;47.484;9.726;2023-04-19T12:38:49;19.80;99.90
13052;DHT22;6592;47.484;9.726;2023-04-19T12:41:20;19.60;99.90
13052;DHT22;6592;47.484;9.726;2023-04-19T12:43:48;19.70;99.90
13052;DHT22;6592;47.484;9.726;2023-04-19T12:46:16;19.50;99.90
13052;DHT22;6592;47.484;9.726;2023-04-19T12:48:45;19.10;99.90
13052;DHT22;6592;47.484;9.726;2023-04-19T12:51:13;19.10;99.90
13052;DHT22;6592;47.484;9.726;2023-04-19T12:53:46;19.00;99.90
13052;DHT22;6592;47.484;9.726;2023-04-19T12:56:14;19.10;99.90
13052;DHT22;6592;47.484;9.726;2023-04-19T12:58:44;19.00;99.90
13052;DHT22;6592;47.484;9.726;2023-04-19T13:01:12;18.80;99.90
13052;DHT22;6592;47.484;9.726;2023-04-19T13:03:41;18.70;99.90
13052;DHT22;6592;47.484;9.726;2023-04-19T13:06:09;18.70;99.90
13052;DHT22;6592;47.484;9.726;2023-04-19T13:08:39;18.70;99.90
13052;DHT22;6592;47.484;9.726;2023-04-19T13:11:13;18.80;99.90
13052;DHT22;6592;47.484;9.726;2023-04-19T13:13:41;18.70;99.90
13052;DHT22;6592;47.484;9.726;2023-04-19T13:16:11;18.80;99.90
13052;DHT22;6592;47.484;9.726;2023-04-19T13:18:39;19.20;99.90
13052;DHT22;6592;47.484;9.726;2023-04-19T13:21:08;19.30;99.90
13052;DHT22;6592;47.484;9.726;2023-04-19T13:23:36;19.50;99.90
13052;DHT22;6592;47.484;9.726;2023-04-19T13:26:05;19.80;99.90
13052;DHT22;6592;47.484;9.726;2023-04-19T13:28:33;20.00;99.90
13052;DHT22;6592;47.484;9.726;2023-04-19T13:31:03;20.30;99.90
13052;DHT22;6592;47.484;9.726;2023-04-19T13:33:33;20.60;99.90
13052;DHT22;6592;47.484;9.726;2023-04-19T13:36:01;20.90;99.90
13052;DHT22;6592;47.484;9.726;2023-04-19T13:38:29;21.30;99.90
13052;DHT22;6592;47.484;9.726;2023-04-19T13:40:58;21.00;99.90
13052;DHT22;6592;47.484;9.726;2023-04-19T13:43:26;20.80;99.90
13052;DHT22;6592;47.484;9.726;2023-04-19T13:45:54;20.60;99.90
13052;DHT22;6592;47.484;9.726;2023-04-19T13:48:23;20.50;99.90
13052;DHT22;6592;47.484;9.726;2023-04-19T13:50:55;20.10;99.90
13052;DHT22;6592;47.484;9.726;2023-04-19T13:53:25;20.00;99.90
13052;DHT22;6592;47.484;9.726;2023-04-19T13:55:53;20.00;99.90
13052;DHT22;6592;47.484;9.726;2023-04-19T13:58:21;20.00;99.90
13052;DHT22;6592;47.484;9.726;2023-04-19T14:00:50;19.60;99.90
13052;DHT22;6592;47.484;9.726;2023-04-19T14:03:21;19.40;99.90
13052;DHT22;6592;47.484;9.726;2023-04-19T14:05:49;19.20;99.90
13052;DHT22;6592;47.484;9.726;2023-04-19T14:08:19;19.00;99.90
13052;DHT22;6592;47.484;9.726;2023-04-19T14:10:48;18.90;99.90
13052;DHT22;6592;47.484;9.726;2023-04-19T14:13:16;18.60;99.90
13052;DHT22;6592;47.484;9.726;2023-04-19T14:15:44;18.40;99.90
13052;DHT22;6592;47.484;9.726;2023-04-19T14:18:13;18.30;99.90
13052;DHT22;6592;47.484;9.726;2023-04-19T14:20:41;18.40;99.90
13052;DHT22;6592;47.484;9.726;2023-04-19T14:23:09;18.40;99.90
13052;DHT22;6592;47.484;9.726;2023-04-19T14:25:39;18.20;99.90
13052;DHT22;6592;47.484;9.726;2023-04-19T14:28:07;18.00;99.90
13052;DHT22;6592;47.484;9.726;2023-04-19T14:30:35;17.90;99.90
13052;DHT22;6592;47.484;9.726;2023-04-19T14:33:04;17.90;99.90
13052;DHT22;6592;47.484;9.726;2023-04-19T14:35:32;17.70;99.90
13052;DHT22;6592;47.484;9.726;2023-04-19T14:38:00;17.60;99.90
13052;DHT22;6592;47.484;9.726;2023-04-19T14:40:28;17.50;99.90
13052;DHT22;6592;47.484;9.726;2023-04-19T14:42:58;17.40;99.90
13052;DHT22;6592;47.484;9.726;2023-04-19T14:45:27;17.30;99.90
13052;DHT22;6592;47.484;9.726;2023-04-19T14:47:55;17.20;99.90
13052;DHT22;6592;47.484;9.726;2023-04-19T14:50:23;17.10;99.90
13052;DHT22;6592;47.484;9.726;2023-04-19T14:52:51;16.90;99.90
13052;DHT22;6592;47.484;9.726;2023-04-19T14:55:20;17.00;99.90
13052;DHT22;6592;47.484;9.726;2023-04-19T14:57:50;17.10;99.90
13052;DHT22;6592;47.484;9.726;2023-04-19T15:00:20;17.00;99.90
13052;DHT22;6592;47.484;9.726;2023-04-19T15:02:49;16.80;99.90
13052;DHT22;6592;47.484;9.726;2023-04-19T15:05:17;16.80;99.90
13052;DHT22;6592;47.484;9.726;2023-04-19T15:07:46;16.70;99.90
13052;DHT22;6592;47.484;9.726;2023-04-19T15:10:14;16.50;99.90
13052;DHT22;6592;47.484;9.726;2023-04-19T15:12:42;16.50;99.90
13052;DHT22;6592;47.484;9.726;2023-04-19T15:15:11;16.40;99.90
13052;DHT22;6592;47.484;9.726;2023-04-19T15:17:41;16.30;99.90
13052;DHT22;6592;47.484;9.726;2023-04-19T15:20:10;16.20;99.90
13052;DHT22;6592;47.484;9.726;2023-04-19T15:22:38;16.10;99.90
13052;DHT22;6592;47.484;9.726;2023-04-19T15:25:07;16.00;99.90
13052;DHT22;6592;47.484;9.726;2023-04-19T15:27:35;15.90;99.90
13052;DHT22;6592;47.484;9.726;2023-04-19T15:30:04;15.90;99.90
13052;DHT22;6592;47.484;9.726;2023-04-19T15:32:32;15.80;99.90
13052;DHT22;6592;47.484;9.726;2023-04-19T15:35:04;15.70;99.90
13052;DHT22;6592;47.484;9.726;2023-04-19T15:37:33;15.70;99.90
13052;DHT22;6592;47.484;9.726;2023-04-19T15:40:01;15.70;99.90
13052;DHT22;6592;47.484;9.726;2023-04-19T15:42:29;15.70;99.90
13052;DHT22;6592;47.484;9.726;2023-04-19T15:44:58;15.80;99.90
13052;DHT22;6592;47.484;9.726;2023-04-19T15:47:26;15.60;99.90
13052;DHT22;6592;47.484;9.726;2023-04-19T15:49:54;15.60;99.90
13052;DHT22;6592;47.484;9.726;2023-04-19T15:52:24;15.60;99.90
13052;DHT22;6592;47.484;9.726;2023-04-19T15:54:52;15.70;99.90
13052;DHT22;6592;47.484;9.726;2023-04-19T15:57:20;15.70;99.90
13052;DHT22;6592;47.484;9.726;2023-04-19T15:59:49;15.60;99.90
13052;DHT22;6592;47.484;9.726;2023-04-19T16:02:17;15.60;99.90
13052;DHT22;6592;47.484;9.726;2023-04-19T16:04:45;15.60;99.90
13052;DHT22;6592;47.484;9.726;2023-04-19T16:07:14;15.60;99.90
13052;DHT22;6592;47.484;9.726;2023-04-19T16:09:44;15.60;99.90